createdAt,value
2018-11-27T00:00:03.876Z,1.49
2018-11-27T00:00:08.167Z,1.48
2018-11-27T00:00:12.461Z,1.49
2018-11-27T00:00:16.651Z,1.49
2018-11-27T00:00:20.955Z,1.49
2018-11-27T00:00:25.249Z,1.49
2018-11-27T00:00:29.443Z,1.49
2018-11-27T00:00:33.729Z,1.48
2018-11-27T00:00:38.038Z,1.49
2018-11-27T00:00:42.335Z,1.48
2018-11-27T00:00:46.624Z,1.49
2018-11-27T00:00:50.924Z,1.49
2018-11-27T00:00:55.222Z,1.49
2018-11-27T00:00:59.519Z,1.49
2018-11-27T00:01:03.810Z,1.48
2018-11-27T00:01:08.094Z,1.49
2018-11-27T00:01:12.390Z,1.49
2018-11-27T00:01:16.679Z,1.49
2018-11-27T00:01:20.974Z,1.49
2018-11-27T00:01:25.264Z,1.49
2018-11-27T00:01:29.555Z,1.49
2018-11-27T00:01:33.847Z,1.49
2018-11-27T00:01:38.139Z,1.49
2018-11-27T00:01:42.429Z,1.49
2018-11-27T00:01:46.723Z,1.49
2018-11-27T00:01:50.835Z,1.5
2018-11-27T00:01:55.129Z,1.49
2018-11-27T00:01:59.693Z,1.5
2018-11-27T00:02:03.894Z,1.49
2018-11-27T00:02:08.192Z,1.5
2018-11-27T00:02:12.487Z,1.49
2018-11-27T00:02:16.799Z,1.5
2018-11-27T00:02:20.897Z,1.5
2018-11-27T00:02:25.188Z,1.49
2018-11-27T00:02:29.476Z,1.49
2018-11-27T00:02:33.773Z,1.5
2018-11-27T00:02:38.069Z,1.5
2018-11-27T00:02:42.359Z,1.5
2018-11-27T00:02:46.696Z,1.5
2018-11-27T00:02:50.984Z,1.51
2018-11-27T00:02:55.186Z,1.5
2018-11-27T00:02:59.479Z,1.5
2018-11-27T00:03:03.784Z,1.5
2018-11-27T00:03:08.093Z,1.5
2018-11-27T00:03:12.290Z,1.5
2018-11-27T00:03:16.616Z,1.51
2018-11-27T00:03:20.918Z,1.51
2018-11-27T00:03:25.213Z,1.51
2018-11-27T00:03:29.547Z,1.5
2018-11-27T00:03:33.834Z,1.5
2018-11-27T00:03:38.127Z,1.5
2018-11-27T00:03:42.432Z,1.5
2018-11-27T00:03:46.729Z,1.5
2018-11-27T00:03:51.020Z,1.51
2018-11-27T00:03:55.217Z,1.5
2018-11-27T00:03:59.516Z,1.51
2018-11-27T00:04:03.972Z,1.51
2018-11-27T00:04:08.171Z,1.51
2018-11-27T00:04:12.461Z,1.5
2018-11-27T00:04:16.761Z,1.5
2018-11-27T00:04:21.053Z,1.51
2018-11-27T00:04:25.345Z,1.51
2018-11-27T00:04:29.636Z,1.51
2018-11-27T00:04:33.829Z,1.5
2018-11-27T00:04:38.122Z,1.51
2018-11-27T00:04:42.418Z,1.5
2018-11-27T00:04:46.704Z,1.51
2018-11-27T00:04:50.994Z,1.51
2018-11-27T00:04:55.292Z,1.51
2018-11-27T00:04:59.582Z,1.51
2018-11-27T00:05:03.888Z,1.51
2018-11-27T00:05:08.178Z,1.5
2018-11-27T00:05:12.471Z,1.5
2018-11-27T00:05:16.761Z,1.5
2018-11-27T00:05:21.047Z,1.51
2018-11-27T00:05:25.245Z,1.51
2018-11-27T00:05:29.537Z,1.5
2018-11-27T00:05:33.737Z,1.5
2018-11-27T00:05:37.956Z,1.5
2018-11-27T00:05:42.251Z,1.5
2018-11-27T00:05:46.542Z,1.51
2018-11-27T00:05:50.737Z,1.5
2018-11-27T00:05:55.028Z,1.51
2018-11-27T00:05:59.324Z,1.51
2018-11-27T00:06:03.523Z,1.5
2018-11-27T00:06:07.818Z,1.51
2018-11-27T00:06:12.106Z,1.51
2018-11-27T00:06:16.397Z,1.51
2018-11-27T00:06:20.682Z,1.51
2018-11-27T00:06:24.880Z,1.51
2018-11-27T00:06:29.175Z,1.51
2018-11-27T00:06:33.466Z,1.51
2018-11-27T00:06:37.767Z,1.51
2018-11-27T00:06:42.058Z,1.52
2018-11-27T00:06:46.352Z,1.51
2018-11-27T00:06:50.646Z,1.51
2018-11-27T00:06:54.934Z,1.52
2018-11-27T00:06:59.225Z,1.5
2018-11-27T00:07:03.521Z,1.52
2018-11-27T00:07:07.718Z,1.52
2018-11-27T00:07:12.012Z,1.52
2018-11-27T00:07:16.301Z,1.51
2018-11-27T00:07:20.508Z,1.51
2018-11-27T00:07:24.702Z,1.51
2018-11-27T00:07:28.997Z,1.51
2018-11-27T00:07:33.293Z,1.51
2018-11-27T00:07:37.590Z,1.51
2018-11-27T00:07:41.881Z,1.51
2018-11-27T00:07:46.135Z,1.51
2018-11-27T00:07:50.421Z,1.51
2018-11-27T00:07:55.413Z,1.52
2018-11-27T00:07:59.707Z,1.52
2018-11-27T00:08:04.047Z,1.52
2018-11-27T00:08:08.352Z,1.52
2018-11-27T00:08:12.643Z,1.51
2018-11-27T00:08:16.934Z,1.51
2018-11-27T00:08:21.224Z,1.52
2018-11-27T00:08:25.516Z,1.52
2018-11-27T00:08:29.808Z,1.52
2018-11-27T00:08:34.102Z,1.52
2018-11-27T00:08:38.391Z,1.52
2018-11-27T00:08:42.683Z,1.52
2018-11-27T00:08:46.984Z,1.52
2018-11-27T00:08:51.272Z,1.52
2018-11-27T00:08:55.562Z,1.51
2018-11-27T00:08:59.852Z,1.52
2018-11-27T00:09:04.248Z,1.52
2018-11-27T00:09:08.540Z,1.52
2018-11-27T00:09:12.827Z,1.51
2018-11-27T00:09:17.019Z,1.51
2018-11-27T00:09:21.214Z,1.53
2018-11-27T00:09:25.504Z,1.51
2018-11-27T00:09:29.802Z,1.52
2018-11-27T00:09:34.091Z,1.52
2018-11-27T00:09:38.386Z,1.52
2018-11-27T00:09:42.681Z,1.52
2018-11-27T00:09:46.980Z,1.52
2018-11-27T00:09:51.282Z,1.52
2018-11-27T00:09:55.574Z,1.51
2018-11-27T00:09:59.872Z,1.52
2018-11-27T00:10:04.168Z,1.51
2018-11-27T00:10:08.463Z,1.51
2018-11-27T00:10:12.665Z,1.52
2018-11-27T00:10:16.958Z,1.52
2018-11-27T00:10:21.256Z,1.53
2018-11-27T00:10:25.445Z,1.52
2018-11-27T00:10:29.733Z,1.52
2018-11-27T00:10:34.046Z,1.52
2018-11-27T00:10:38.343Z,1.51
2018-11-27T00:10:42.448Z,1.52
2018-11-27T00:10:46.741Z,1.52
2018-11-27T00:10:51.036Z,1.51
2018-11-27T00:10:55.323Z,1.52
2018-11-27T00:10:59.614Z,1.51
2018-11-27T00:11:03.905Z,1.51
2018-11-27T00:11:08.194Z,1.52
2018-11-27T00:11:12.483Z,1.51
2018-11-27T00:11:16.768Z,1.52
2018-11-27T00:11:21.058Z,1.51
2018-11-27T00:11:25.355Z,1.52
2018-11-27T00:11:29.645Z,1.51
2018-11-27T00:11:33.937Z,1.52
2018-11-27T00:11:38.231Z,1.52
2018-11-27T00:11:42.523Z,1.52
2018-11-27T00:11:46.812Z,1.51
2018-11-27T00:11:51.104Z,1.51
2018-11-27T00:11:55.396Z,1.52
2018-11-27T00:11:59.699Z,1.52
2018-11-27T00:12:03.998Z,1.52
2018-11-27T00:12:08.294Z,1.52
2018-11-27T00:12:12.584Z,1.52
2018-11-27T00:12:16.877Z,1.52
2018-11-27T00:12:21.167Z,1.51
2018-11-27T00:12:25.461Z,1.51
2018-11-27T00:12:29.752Z,1.51
2018-11-27T00:12:34.042Z,1.52
2018-11-27T00:12:38.241Z,1.52
2018-11-27T00:12:42.440Z,1.52
2018-11-27T00:12:46.688Z,1.52
2018-11-27T00:12:50.982Z,1.52
2018-11-27T00:12:55.220Z,1.51
2018-11-27T00:12:59.320Z,1.51
2018-11-27T00:13:03.520Z,1.51
2018-11-27T00:13:07.770Z,1.52
2018-11-27T00:13:12.059Z,1.53
2018-11-27T00:13:16.349Z,1.53
2018-11-27T00:13:20.651Z,1.52
2018-11-27T00:13:24.984Z,1.51
2018-11-27T00:13:29.275Z,1.52
2018-11-27T00:13:33.568Z,1.52
2018-11-27T00:13:37.857Z,1.52
2018-11-27T00:13:42.058Z,1.51
2018-11-27T00:13:46.358Z,1.51
2018-11-27T00:13:50.650Z,1.52
2018-11-27T00:13:54.940Z,1.52
2018-11-27T00:13:59.232Z,1.51
2018-11-27T00:14:03.521Z,1.51
2018-11-27T00:14:07.712Z,1.51
2018-11-27T00:14:12.002Z,1.51
2018-11-27T00:14:16.296Z,1.5
2018-11-27T00:14:20.587Z,1.51
2018-11-27T00:14:24.881Z,1.51
2018-11-27T00:14:29.170Z,1.51
2018-11-27T00:14:33.465Z,1.5
2018-11-27T00:14:37.655Z,1.51
2018-11-27T00:14:41.945Z,1.51
2018-11-27T00:14:46.143Z,1.51
2018-11-27T00:14:50.430Z,1.51
2018-11-27T00:14:54.718Z,1.5
2018-11-27T00:14:59.016Z,1.51
2018-11-27T00:15:03.310Z,1.5
2018-11-27T00:15:07.596Z,1.51
2018-11-27T00:15:11.879Z,1.5
2018-11-27T00:15:16.176Z,1.51
2018-11-27T00:15:20.465Z,1.5
2018-11-27T00:15:24.656Z,1.5
2018-11-27T00:15:28.957Z,1.5
2018-11-27T00:15:33.254Z,1.5
2018-11-27T00:15:37.352Z,1.49
2018-11-27T00:15:41.637Z,1.5
2018-11-27T00:15:45.926Z,1.5
2018-11-27T00:15:50.116Z,1.5
2018-11-27T00:15:54.405Z,1.5
2018-11-27T00:15:58.700Z,1.5
2018-11-27T00:16:02.987Z,1.5
2018-11-27T00:16:07.178Z,1.5
2018-11-27T00:16:11.470Z,1.5
2018-11-27T00:16:15.660Z,1.5
2018-11-27T00:16:19.952Z,1.5
2018-11-27T00:16:24.249Z,1.51
2018-11-27T00:16:28.553Z,1.5
2018-11-27T00:16:32.842Z,1.51
2018-11-27T00:16:37.128Z,1.51
2018-11-27T00:16:41.421Z,1.5
2018-11-27T00:16:45.713Z,1.5
2018-11-27T00:16:50.006Z,1.51
2018-11-27T00:16:54.207Z,1.51
2018-11-27T00:16:58.403Z,1.5
2018-11-27T00:17:02.698Z,1.49
2018-11-27T00:17:06.992Z,1.5
2018-11-27T00:17:11.287Z,1.5
2018-11-27T00:17:15.585Z,1.51
2018-11-27T00:17:19.882Z,1.51
2018-11-27T00:17:24.176Z,1.51
2018-11-27T00:17:28.464Z,1.51
2018-11-27T00:17:32.751Z,1.5
2018-11-27T00:17:37.046Z,1.51
2018-11-27T00:17:41.349Z,1.5
2018-11-27T00:17:45.641Z,1.51
2018-11-27T00:17:49.936Z,1.51
2018-11-27T00:17:54.235Z,1.51
2018-11-27T00:17:59.501Z,1.5
2018-11-27T00:18:03.703Z,1.51
2018-11-27T00:18:07.908Z,1.51
2018-11-27T00:18:12.200Z,1.51
2018-11-27T00:18:16.491Z,1.5
2018-11-27T00:18:20.694Z,1.51
2018-11-27T00:18:24.983Z,1.5
2018-11-27T00:18:29.306Z,1.51
2018-11-27T00:18:33.595Z,1.51
2018-11-27T00:18:37.899Z,1.5
2018-11-27T00:18:42.196Z,1.5
2018-11-27T00:18:46.489Z,1.5
2018-11-27T00:18:50.799Z,1.51
2018-11-27T00:18:55.102Z,1.5
2018-11-27T00:18:59.406Z,1.5
2018-11-27T00:19:03.693Z,1.51
2018-11-27T00:19:07.991Z,1.5
2018-11-27T00:19:12.283Z,1.5
2018-11-27T00:19:16.632Z,1.49
2018-11-27T00:19:20.922Z,1.5
2018-11-27T00:19:25.216Z,1.5
2018-11-27T00:19:29.509Z,1.5
2018-11-27T00:19:33.802Z,1.5
2018-11-27T00:19:38.096Z,1.5
2018-11-27T00:19:42.386Z,1.5
2018-11-27T00:19:46.677Z,1.5
2018-11-27T00:19:50.970Z,1.49
2018-11-27T00:19:55.263Z,1.5
2018-11-27T00:19:59.563Z,1.5
2018-11-27T00:20:03.856Z,1.49
2018-11-27T00:20:08.144Z,1.5
2018-11-27T00:20:12.441Z,1.5
2018-11-27T00:20:16.643Z,1.5
2018-11-27T00:20:20.957Z,1.5
2018-11-27T00:20:25.253Z,1.5
2018-11-27T00:20:29.554Z,1.5
2018-11-27T00:20:33.856Z,1.5
2018-11-27T00:20:37.958Z,1.49
2018-11-27T00:20:42.251Z,1.5
2018-11-27T00:20:46.440Z,1.5
2018-11-27T00:20:50.776Z,1.5
2018-11-27T00:20:54.972Z,1.5
2018-11-27T00:20:59.262Z,1.51
2018-11-27T00:21:03.548Z,1.49
2018-11-27T00:21:07.840Z,1.5
2018-11-27T00:21:12.126Z,1.5
2018-11-27T00:21:16.414Z,1.51
2018-11-27T00:21:20.604Z,1.5
2018-11-27T00:21:24.896Z,1.5
2018-11-27T00:21:29.190Z,1.5
2018-11-27T00:21:33.482Z,1.5
2018-11-27T00:21:37.776Z,1.5
2018-11-27T00:21:42.078Z,1.5
2018-11-27T00:21:46.370Z,1.5
2018-11-27T00:21:50.657Z,1.5
2018-11-27T00:21:54.948Z,1.49
2018-11-27T00:21:59.247Z,1.5
2018-11-27T00:22:03.454Z,1.51
2018-11-27T00:22:07.744Z,1.5
2018-11-27T00:22:12.034Z,1.5
2018-11-27T00:22:16.330Z,1.51
2018-11-27T00:22:20.662Z,1.51
2018-11-27T00:22:24.959Z,1.51
2018-11-27T00:22:29.254Z,1.51
2018-11-27T00:22:33.551Z,1.5
2018-11-27T00:22:37.752Z,1.51
2018-11-27T00:22:42.054Z,1.52
2018-11-27T00:22:46.253Z,1.52
2018-11-27T00:22:50.443Z,1.5
2018-11-27T00:22:54.641Z,1.5
2018-11-27T00:22:58.966Z,1.5
2018-11-27T00:23:03.162Z,1.51
2018-11-27T00:23:07.458Z,1.51
2018-11-27T00:23:11.749Z,1.5
2018-11-27T00:23:16.053Z,1.51
2018-11-27T00:23:20.246Z,1.51
2018-11-27T00:23:24.434Z,1.51
2018-11-27T00:23:28.729Z,1.5
2018-11-27T00:23:33.017Z,1.52
2018-11-27T00:23:37.302Z,1.51
2018-11-27T00:23:41.502Z,1.51
2018-11-27T00:23:45.795Z,1.52
2018-11-27T00:23:50.086Z,1.51
2018-11-27T00:23:54.376Z,1.52
2018-11-27T00:23:58.667Z,1.51
2018-11-27T00:24:02.871Z,1.51
2018-11-27T00:24:07.168Z,1.51
2018-11-27T00:24:11.460Z,1.51
2018-11-27T00:24:15.759Z,1.51
2018-11-27T00:24:20.054Z,1.51
2018-11-27T00:24:24.346Z,1.51
2018-11-27T00:24:28.545Z,1.51
2018-11-27T00:24:32.835Z,1.52
2018-11-27T00:24:37.029Z,1.52
2018-11-27T00:24:41.318Z,1.51
2018-11-27T00:24:45.617Z,1.51
2018-11-27T00:24:49.822Z,1.52
2018-11-27T00:24:54.108Z,1.52
2018-11-27T00:24:58.404Z,1.51
2018-11-27T00:25:02.701Z,1.5
2018-11-27T00:25:06.989Z,1.51
2018-11-27T00:25:11.291Z,1.5
2018-11-27T00:25:15.579Z,1.51
2018-11-27T00:25:19.877Z,1.51
2018-11-27T00:25:24.076Z,1.51
2018-11-27T00:25:28.363Z,1.51
2018-11-27T00:25:32.651Z,1.51
2018-11-27T00:25:36.949Z,1.51
2018-11-27T00:25:41.239Z,1.51
2018-11-27T00:25:45.432Z,1.51
2018-11-27T00:25:49.724Z,1.5
2018-11-27T00:25:54.019Z,1.5
2018-11-27T00:25:58.315Z,1.51
2018-11-27T00:26:02.616Z,1.5
2018-11-27T00:26:06.911Z,1.5
2018-11-27T00:26:12.253Z,1.51
2018-11-27T00:26:16.441Z,1.51
2018-11-27T00:26:20.738Z,1.51
2018-11-27T00:26:24.941Z,1.5
2018-11-27T00:26:29.238Z,1.5
2018-11-27T00:26:33.440Z,1.51
2018-11-27T00:26:37.732Z,1.51
2018-11-27T00:26:42.026Z,1.51
2018-11-27T00:26:46.321Z,1.5
2018-11-27T00:26:50.429Z,1.5
2018-11-27T00:26:54.717Z,1.5
2018-11-27T00:27:31.016Z,1.5
2018-11-27T00:27:35.302Z,1.51
2018-11-27T00:27:39.493Z,1.51
2018-11-27T00:27:43.780Z,1.5
2018-11-27T00:27:48.073Z,1.5
2018-11-27T00:27:52.364Z,1.5
2018-11-27T00:27:56.562Z,1.5
2018-11-27T00:28:00.853Z,1.5
2018-11-27T00:28:05.148Z,1.5
2018-11-27T00:28:09.443Z,1.5
2018-11-27T00:28:13.739Z,1.5
2018-11-27T00:28:18.024Z,1.51
2018-11-27T00:28:22.216Z,1.49
2018-11-27T00:28:26.514Z,1.5
2018-11-27T00:28:31.680Z,1.5
2018-11-27T00:28:36.017Z,1.5
2018-11-27T00:28:40.304Z,1.5
2018-11-27T00:28:44.512Z,1.5
2018-11-27T00:28:48.809Z,1.51
2018-11-27T00:28:53.099Z,1.49
2018-11-27T00:28:57.294Z,1.5
2018-11-27T00:29:01.581Z,1.49
2018-11-27T00:29:05.914Z,1.51
2018-11-27T00:29:10.222Z,1.5
2018-11-27T00:29:14.509Z,1.51
2018-11-27T00:29:18.808Z,1.5
2018-11-27T00:29:23.092Z,1.5
2018-11-27T00:29:27.382Z,1.51
2018-11-27T00:29:31.682Z,1.51
2018-11-27T00:29:35.974Z,1.51
2018-11-27T00:29:40.278Z,1.5
2018-11-27T00:29:44.567Z,1.51
2018-11-27T00:29:48.857Z,1.51
2018-11-27T00:29:53.146Z,1.51
2018-11-27T00:29:57.337Z,1.51
2018-11-27T00:30:01.542Z,1.5
2018-11-27T00:30:05.936Z,1.52
2018-11-27T00:30:10.228Z,1.5
2018-11-27T00:30:14.431Z,1.52
2018-11-27T00:30:18.635Z,1.52
2018-11-27T00:30:22.648Z,1.51
2018-11-27T00:30:26.937Z,1.51
2018-11-27T00:30:30.930Z,1.52
2018-11-27T00:30:35.230Z,1.52
2018-11-27T00:30:39.524Z,1.51
2018-11-27T00:30:43.863Z,1.51
2018-11-27T00:30:48.158Z,1.52
2018-11-27T00:30:52.445Z,1.51
2018-11-27T00:30:56.733Z,1.51
2018-11-27T00:31:01.024Z,1.52
2018-11-27T00:31:05.320Z,1.51
2018-11-27T00:31:09.618Z,1.51
2018-11-27T00:31:13.911Z,1.52
2018-11-27T00:31:18.199Z,1.51
2018-11-27T00:31:22.509Z,1.52
2018-11-27T00:31:26.803Z,1.5
2018-11-27T00:31:31.099Z,1.51
2018-11-27T00:31:35.393Z,1.51
2018-11-27T00:31:39.687Z,1.52
2018-11-27T00:31:43.975Z,1.51
2018-11-27T00:31:48.272Z,1.51
2018-11-27T00:31:52.557Z,1.52
2018-11-27T00:31:56.851Z,1.51
2018-11-27T00:32:01.150Z,1.51
2018-11-27T00:32:05.439Z,1.52
2018-11-27T00:32:09.637Z,1.51
2018-11-27T00:32:13.931Z,1.51
2018-11-27T00:32:18.127Z,1.52
2018-11-27T00:32:22.421Z,1.51
2018-11-27T00:32:26.712Z,1.51
2018-11-27T00:32:31.013Z,1.51
2018-11-27T00:32:35.304Z,1.52
2018-11-27T00:32:39.500Z,1.51
2018-11-27T00:32:43.788Z,1.51
2018-11-27T00:32:48.081Z,1.5
2018-11-27T00:32:52.379Z,1.52
2018-11-27T00:32:56.571Z,1.51
2018-11-27T00:33:00.873Z,1.51
2018-11-27T00:33:05.160Z,1.52
2018-11-27T00:33:09.445Z,1.52
2018-11-27T00:33:13.740Z,1.52
2018-11-27T00:33:18.074Z,1.51
2018-11-27T00:33:22.369Z,1.52
2018-11-27T00:33:26.668Z,1.51
2018-11-27T00:33:30.865Z,1.52
2018-11-27T00:33:35.159Z,1.51
2018-11-27T00:33:39.350Z,1.52
2018-11-27T00:33:43.634Z,1.51
2018-11-27T00:33:47.923Z,1.51
2018-11-27T00:33:52.211Z,1.52
2018-11-27T00:33:56.498Z,1.51
2018-11-27T00:34:00.785Z,1.52
2018-11-27T00:34:05.019Z,1.51
2018-11-27T00:34:09.325Z,1.52
2018-11-27T00:34:13.619Z,1.52
2018-11-27T00:34:17.909Z,1.52
2018-11-27T00:34:22.199Z,1.52
2018-11-27T00:34:26.488Z,1.52
2018-11-27T00:34:30.686Z,1.51
2018-11-27T00:34:34.887Z,1.52
2018-11-27T00:34:39.171Z,1.52
2018-11-27T00:34:43.460Z,1.52
2018-11-27T00:34:47.788Z,1.51
2018-11-27T00:34:52.078Z,1.52
2018-11-27T00:34:56.370Z,1.52
2018-11-27T00:35:00.659Z,1.52
2018-11-27T00:35:04.961Z,1.53
2018-11-27T00:35:09.148Z,1.52
2018-11-27T00:35:13.440Z,1.52
2018-11-27T00:35:17.738Z,1.52
2018-11-27T00:35:22.027Z,1.52
2018-11-27T00:35:26.224Z,1.52
2018-11-27T00:35:30.413Z,1.53
2018-11-27T00:35:34.507Z,1.52
2018-11-27T00:35:38.700Z,1.52
2018-11-27T00:35:42.895Z,1.52
2018-11-27T00:35:47.188Z,1.53
2018-11-27T00:35:51.529Z,1.52
2018-11-27T00:35:55.819Z,1.52
2018-11-27T00:36:00.115Z,1.52
2018-11-27T00:36:04.410Z,1.53
2018-11-27T00:36:08.710Z,1.53
2018-11-27T00:36:13.014Z,1.53
2018-11-27T00:36:17.302Z,1.53
2018-11-27T00:36:21.592Z,1.53
2018-11-27T00:36:25.896Z,1.52
2018-11-27T00:36:30.183Z,1.52
2018-11-27T00:36:34.478Z,1.53
2018-11-27T00:36:38.774Z,1.53
2018-11-27T00:36:43.060Z,1.53
2018-11-27T00:36:47.251Z,1.53
2018-11-27T00:36:51.542Z,1.52
2018-11-27T00:36:55.838Z,1.52
2018-11-27T00:37:00.132Z,1.53
2018-11-27T00:37:04.420Z,1.53
2018-11-27T00:37:08.709Z,1.53
2018-11-27T00:37:12.812Z,1.52
2018-11-27T00:37:17.003Z,1.52
2018-11-27T00:37:21.295Z,1.53
2018-11-27T00:37:25.590Z,1.53
2018-11-27T00:37:29.875Z,1.53
2018-11-27T00:37:34.065Z,1.52
2018-11-27T00:37:38.161Z,1.53
2018-11-27T00:37:42.466Z,1.53
2018-11-27T00:37:46.764Z,1.53
2018-11-27T00:37:51.129Z,1.52
2018-11-27T00:37:55.319Z,1.53
2018-11-27T00:37:59.624Z,1.52
2018-11-27T00:38:03.910Z,1.53
2018-11-27T00:38:08.196Z,1.54
2018-11-27T00:38:12.482Z,1.52
2018-11-27T00:38:16.772Z,1.54
2018-11-27T00:38:21.061Z,1.54
2018-11-27T00:38:25.352Z,1.53
2018-11-27T00:38:29.637Z,1.53
2018-11-27T00:38:33.923Z,1.53
2018-11-27T00:38:38.211Z,1.52
2018-11-27T00:38:42.508Z,1.53
2018-11-27T00:38:46.711Z,1.53
2018-11-27T00:38:50.994Z,1.52
2018-11-27T00:38:55.282Z,1.52
2018-11-27T00:38:59.575Z,1.53
2018-11-27T00:39:04.019Z,1.52
2018-11-27T00:39:08.307Z,1.53
2018-11-27T00:39:12.611Z,1.52
2018-11-27T00:39:16.901Z,1.52
2018-11-27T00:39:21.094Z,1.53
2018-11-27T00:39:25.288Z,1.53
2018-11-27T00:39:29.581Z,1.53
2018-11-27T00:39:33.867Z,1.52
2018-11-27T00:39:38.068Z,1.52
2018-11-27T00:39:42.358Z,1.52
2018-11-27T00:39:46.653Z,1.52
2018-11-27T00:39:50.939Z,1.53
2018-11-27T00:39:55.281Z,1.52
2018-11-27T00:39:59.568Z,1.52
2018-11-27T00:40:03.877Z,1.52
2018-11-27T00:40:08.171Z,1.51
2018-11-27T00:40:12.371Z,1.52
2018-11-27T00:40:16.715Z,1.51
2018-11-27T00:40:21.008Z,1.52
2018-11-27T00:40:25.332Z,1.52
2018-11-27T00:40:29.624Z,1.52
2018-11-27T00:40:33.962Z,1.52
2018-11-27T00:40:38.249Z,1.52
2018-11-27T00:40:42.533Z,1.51
2018-11-27T00:40:46.770Z,1.52
2018-11-27T00:40:51.069Z,1.52
2018-11-27T00:40:55.263Z,1.52
2018-11-27T00:40:59.551Z,1.52
2018-11-27T00:41:03.844Z,1.52
2018-11-27T00:41:08.133Z,1.52
2018-11-27T00:41:12.326Z,1.51
2018-11-27T00:41:16.528Z,1.52
2018-11-27T00:41:21.728Z,1.52
2018-11-27T00:41:26.023Z,1.51
2018-11-27T00:41:30.313Z,1.52
2018-11-27T00:41:34.606Z,1.52
2018-11-27T00:41:38.900Z,1.52
2018-11-27T00:41:43.193Z,1.52
2018-11-27T00:41:47.478Z,1.53
2018-11-27T00:41:51.796Z,1.52
2018-11-27T00:41:56.089Z,1.51
2018-11-27T00:42:00.380Z,1.52
2018-11-27T00:42:04.685Z,1.53
2018-11-27T00:42:08.977Z,1.52
2018-11-27T00:42:13.267Z,1.52
2018-11-27T00:42:17.558Z,1.52
2018-11-27T00:42:21.753Z,1.52
2018-11-27T00:42:26.097Z,1.52
2018-11-27T00:42:30.288Z,1.52
2018-11-27T00:42:34.580Z,1.52
2018-11-27T00:42:38.882Z,1.53
2018-11-27T00:42:43.170Z,1.52
2018-11-27T00:42:47.260Z,1.52
2018-11-27T00:42:51.249Z,1.52
2018-11-27T00:42:55.547Z,1.52
2018-11-27T00:42:59.837Z,1.52
2018-11-27T00:43:04.282Z,1.52
2018-11-27T00:43:08.570Z,1.53
2018-11-27T00:43:12.855Z,1.52
2018-11-27T00:43:17.144Z,1.52
2018-11-27T00:43:21.342Z,1.52
2018-11-27T00:43:25.628Z,1.53
2018-11-27T00:43:29.920Z,1.53
2018-11-27T00:43:34.213Z,1.52
2018-11-27T00:43:38.504Z,1.52
2018-11-27T00:43:42.793Z,1.51
2018-11-27T00:43:47.080Z,1.53
2018-11-27T00:43:51.287Z,1.53
2018-11-27T00:43:55.577Z,1.53
2018-11-27T00:43:59.770Z,1.53
2018-11-27T00:44:04.126Z,1.52
2018-11-27T00:44:08.421Z,1.53
2018-11-27T00:44:12.715Z,1.52
2018-11-27T00:44:17.011Z,1.52
2018-11-27T00:44:21.300Z,1.53
2018-11-27T00:44:25.595Z,1.52
2018-11-27T00:44:29.890Z,1.52
2018-11-27T00:44:34.082Z,1.53
2018-11-27T00:44:38.383Z,1.52
2018-11-27T00:44:42.677Z,1.52
2018-11-27T00:44:46.862Z,1.52
2018-11-27T00:44:51.155Z,1.52
2018-11-27T00:44:55.345Z,1.52
2018-11-27T00:44:59.641Z,1.53
2018-11-27T00:45:03.941Z,1.52
2018-11-27T00:45:08.228Z,1.53
2018-11-27T00:45:12.335Z,1.52
2018-11-27T00:45:16.623Z,1.52
2018-11-27T00:45:20.922Z,1.52
2018-11-27T00:45:25.211Z,1.52
2018-11-27T00:45:29.500Z,1.52
2018-11-27T00:45:33.701Z,1.52
2018-11-27T00:45:38.009Z,1.52
2018-11-27T00:45:42.298Z,1.52
2018-11-27T00:45:46.588Z,1.52
2018-11-27T00:45:50.780Z,1.52
2018-11-27T00:45:55.073Z,1.52
2018-11-27T00:45:59.369Z,1.53
2018-11-27T00:46:03.816Z,1.52
2018-11-27T00:46:08.102Z,1.53
2018-11-27T00:46:12.440Z,1.52
2018-11-27T00:46:16.634Z,1.53
2018-11-27T00:46:20.932Z,1.53
2018-11-27T00:46:25.221Z,1.52
2018-11-27T00:46:29.518Z,1.53
2018-11-27T00:46:33.810Z,1.52
2018-11-27T00:46:38.001Z,1.54
2018-11-27T00:46:42.304Z,1.53
2018-11-27T00:46:46.599Z,1.53
2018-11-27T00:46:50.892Z,1.52
2018-11-27T00:46:55.181Z,1.53
2018-11-27T00:46:59.476Z,1.52
2018-11-27T00:47:03.666Z,1.53
2018-11-27T00:47:07.955Z,1.53
2018-11-27T00:47:12.240Z,1.52
2018-11-27T00:47:16.531Z,1.53
2018-11-27T00:47:20.722Z,1.53
2018-11-27T00:47:25.012Z,1.53
2018-11-27T00:47:29.309Z,1.53
2018-11-27T00:47:33.599Z,1.53
2018-11-27T00:47:37.788Z,1.53
2018-11-27T00:47:41.989Z,1.53
2018-11-27T00:47:46.291Z,1.53
2018-11-27T00:47:50.487Z,1.52
2018-11-27T00:47:54.773Z,1.53
2018-11-27T00:47:58.969Z,1.53
2018-11-27T00:48:03.258Z,1.53
2018-11-27T00:48:07.551Z,1.53
2018-11-27T00:48:11.838Z,1.53
2018-11-27T00:48:16.122Z,1.53
2018-11-27T00:48:20.412Z,1.54
2018-11-27T00:48:24.600Z,1.52
2018-11-27T00:48:28.916Z,1.53
2018-11-27T00:48:33.226Z,1.52
2018-11-27T00:48:37.520Z,1.53
2018-11-27T00:48:41.813Z,1.52
2018-11-27T00:48:46.142Z,1.53
2018-11-27T00:48:50.438Z,1.53
2018-11-27T00:48:54.730Z,1.53
2018-11-27T00:48:59.023Z,1.52
2018-11-27T00:49:03.413Z,1.52
2018-11-27T00:49:07.700Z,1.53
2018-11-27T00:49:11.993Z,1.52
2018-11-27T00:49:16.288Z,1.53
2018-11-27T00:49:20.590Z,1.53
2018-11-27T00:49:24.912Z,1.53
2018-11-27T00:49:29.199Z,1.53
2018-11-27T00:49:33.494Z,1.53
2018-11-27T00:49:37.784Z,1.53
2018-11-27T00:49:42.070Z,1.53
2018-11-27T00:49:46.366Z,1.52
2018-11-27T00:49:50.656Z,1.53
2018-11-27T00:49:54.852Z,1.53
2018-11-27T00:49:59.156Z,1.52
2018-11-27T00:50:03.349Z,1.52
2018-11-27T00:50:07.644Z,1.52
2018-11-27T00:50:11.943Z,1.53
2018-11-27T00:50:16.140Z,1.52
2018-11-27T00:50:20.428Z,1.53
2018-11-27T00:50:24.646Z,1.53
2018-11-27T00:50:28.944Z,1.52
2018-11-27T00:50:33.228Z,1.53
2018-11-27T00:50:37.524Z,1.53
2018-11-27T00:50:41.723Z,1.53
2018-11-27T00:50:46.015Z,1.53
2018-11-27T00:50:50.303Z,1.52
2018-11-27T00:50:54.595Z,1.52
2018-11-27T00:50:58.887Z,1.53
2018-11-27T00:51:03.174Z,1.53
2018-11-27T00:51:07.466Z,1.53
2018-11-27T00:51:11.755Z,1.52
2018-11-27T00:51:16.041Z,1.53
2018-11-27T00:51:20.332Z,1.53
2018-11-27T00:51:24.629Z,1.53
2018-11-27T00:51:28.923Z,1.53
2018-11-27T00:51:33.212Z,1.53
2018-11-27T00:51:37.401Z,1.53
2018-11-27T00:51:41.698Z,1.53
2018-11-27T00:51:45.997Z,1.52
2018-11-27T00:51:50.292Z,1.53
2018-11-27T00:51:54.583Z,1.53
2018-11-27T00:51:58.869Z,1.53
2018-11-27T00:52:03.161Z,1.53
2018-11-27T00:52:07.359Z,1.53
2018-11-27T00:52:11.648Z,1.53
2018-11-27T00:52:15.935Z,1.53
2018-11-27T00:52:20.137Z,1.53
2018-11-27T00:52:24.430Z,1.53
2018-11-27T00:52:28.721Z,1.52
2018-11-27T00:52:33.059Z,1.53
2018-11-27T00:52:37.357Z,1.53
2018-11-27T00:52:41.545Z,1.53
2018-11-27T00:52:45.885Z,1.54
2018-11-27T00:52:50.177Z,1.54
2018-11-27T00:52:54.472Z,1.54
2018-11-27T00:52:58.672Z,1.53
2018-11-27T00:53:02.970Z,1.52
2018-11-27T00:53:07.167Z,1.53
2018-11-27T00:53:11.458Z,1.55
2018-11-27T00:53:15.656Z,1.54
2018-11-27T00:53:19.944Z,1.53
2018-11-27T00:53:24.243Z,1.53
2018-11-27T00:53:28.432Z,1.53
2018-11-27T00:53:32.730Z,1.53
2018-11-27T00:53:36.970Z,1.53
2018-11-27T00:53:41.157Z,1.54
2018-11-27T00:53:45.445Z,1.53
2018-11-27T00:53:49.731Z,1.52
2018-11-27T00:53:54.019Z,1.54
2018-11-27T00:53:58.312Z,1.53
2018-11-27T00:54:02.604Z,1.53
2018-11-27T00:54:06.892Z,1.54
2018-11-27T00:54:11.140Z,1.54
2018-11-27T00:54:15.433Z,1.53
2018-11-27T00:54:20.765Z,1.53
2018-11-27T00:54:25.055Z,1.54
2018-11-27T00:54:29.353Z,1.53
2018-11-27T00:54:33.646Z,1.52
2018-11-27T00:54:37.948Z,1.54
2018-11-27T00:54:42.241Z,1.52
2018-11-27T00:54:46.525Z,1.53
2018-11-27T00:54:50.844Z,1.54
2018-11-27T00:55:00.206Z,1.53
2018-11-27T00:55:04.424Z,1.52
2018-11-27T00:55:08.633Z,1.52
2018-11-27T00:55:12.937Z,1.53
2018-11-27T00:55:17.141Z,1.53
2018-11-27T00:55:21.447Z,1.53
2018-11-27T00:55:25.741Z,1.53
2018-11-27T00:55:29.937Z,1.53
2018-11-27T00:55:34.227Z,1.52
2018-11-27T00:55:38.569Z,1.53
2018-11-27T00:55:42.671Z,1.53
2018-11-27T00:55:46.970Z,1.52
2018-11-27T00:55:51.163Z,1.53
2018-11-27T00:55:55.454Z,1.52
2018-11-27T00:55:59.782Z,1.53
2018-11-27T00:56:04.156Z,1.52
2018-11-27T00:56:08.458Z,1.53
2018-11-27T00:56:12.744Z,1.52
2018-11-27T00:56:17.036Z,1.53
2018-11-27T00:56:21.234Z,1.53
2018-11-27T00:56:25.521Z,1.53
2018-11-27T00:56:29.806Z,1.53
2018-11-27T00:56:34.102Z,1.54
2018-11-27T00:56:38.405Z,1.53
2018-11-27T00:56:42.709Z,1.52
2018-11-27T00:56:46.998Z,1.52
2018-11-27T00:56:51.297Z,1.53
2018-11-27T00:56:55.583Z,1.52
2018-11-27T00:56:59.868Z,1.53
2018-11-27T00:57:04.176Z,1.53
2018-11-27T00:57:08.468Z,1.53
2018-11-27T00:57:12.758Z,1.53
2018-11-27T00:57:17.057Z,1.52
2018-11-27T00:57:21.348Z,1.53
2018-11-27T00:57:25.638Z,1.53
2018-11-27T00:57:29.941Z,1.53
2018-11-27T00:57:34.230Z,1.53
2018-11-27T00:57:38.527Z,1.53
2018-11-27T00:57:42.729Z,1.52
2018-11-27T00:57:46.928Z,1.53
2018-11-27T00:57:51.241Z,1.53
2018-11-27T00:57:55.540Z,1.52
2018-11-27T00:57:59.732Z,1.52